Time;durP1;ratioP1;P1;durP2;ratioP2;P2;SDS_P1;SDS_P2;PMS_P1;PMS_P2;Temp;Humidity;BMP_temperature;BMP_pressure;BME280_temperature;BME280_humidity;BME280_pressure;Samples;Min_cycle;Max_cycle;Signal;HPM_P1;HPM_P2
2023/06/23 00:01:18;;;;;;;;;;;20.60;64.60;;;;;;5112008;28;20376;-72
2023/06/23 00:03:46;;;;;;;;;;;20.60;64.60;;;;;;5111742;28;19959;-72
2023/06/23 00:06:12;;;;;;;;;;;20.60;64.60;;;;;;5111845;28;19923;-71
2023/06/23 00:08:41;;;;;;;;;;;20.50;64.60;;;;;;5111664;28;19916;-71
2023/06/23 00:11:10;;;;;;;;;;;20.50;64.70;;;;;;5110606;28;20329;-71
2023/06/23 00:13:36;;;;;;;;;;;20.50;64.80;;;;;;5111803;28;19914;-71
2023/06/23 00:16:06;;;;;;;;;;;20.50;64.80;;;;;;5111874;28;19935;-72
2023/06/23 00:18:39;;;;;;;;;;;20.50;64.70;;;;;;5111839;28;19916;-71
2023/06/23 00:21:06;;;;;;;;;;;20.50;64.70;;;;;;5112151;28;19985;-72
2023/06/23 00:23:31;;;;;;;;;;;20.60;64.70;;;;;;5111713;28;19912;-71
2023/06/23 00:25:57;;;;;;;;;;;20.60;64.60;;;;;;5111665;28;20312;-71
2023/06/23 00:28:24;;;;;;;;;;;20.60;64.60;;;;;;5111585;27;20368;-71
2023/06/23 00:30:50;;;;;;;;;;;20.60;64.60;;;;;;5111817;28;19912;-72
2023/06/23 00:33:17;;;;;;;;;;;20.50;64.50;;;;;;5111560;28;19957;-71
2023/06/23 00:35:42;;;;;;;;;;;20.50;64.60;;;;;;5111336;28;19949;-71
2023/06/23 00:38:08;;;;;;;;;;;20.50;64.70;;;;;;5110359;27;20000;-71
2023/06/23 00:40:34;;;;;;;;;;;20.50;64.60;;;;;;5111262;28;19923;-72
2023/06/23 00:42:59;;;;;;;;;;;20.50;64.70;;;;;;5111309;28;20360;-72
2023/06/23 00:45:25;;;;;;;;;;;20.50;64.60;;;;;;5111333;28;19954;-72
2023/06/23 00:47:51;;;;;;;;;;;20.50;64.60;;;;;;5111202;28;19923;-72
2023/06/23 00:50:17;;;;;;;;;;;20.50;64.70;;;;;;5111190;28;19908;-72
2023/06/23 00:52:50;;;;;;;;;;;20.40;64.80;;;;;;5111148;28;20411;-71
2023/06/23 00:55:16;;;;;;;;;;;20.40;64.80;;;;;;5111049;27;19962;-71
2023/06/23 00:57:42;;;;;;;;;;;20.40;64.70;;;;;;5111049;28;19916;-71
2023/06/23 01:00:41;;;;;;;;;;;20.40;64.80;;;;;;5111148;28;20317;-71
2023/06/23 01:03:01;;;;;;;;;;;20.30;64.70;;;;;;5110445;27;19966;-72
2023/06/23 01:05:37;;;;;;;;;;;20.40;64.80;;;;;;5109416;28;20006;-71
2023/06/23 01:08:03;;;;;;;;;;;20.30;64.70;;;;;;5110859;28;19947;-71
2023/06/23 01:10:35;;;;;;;;;;;20.30;64.70;;;;;;5110728;27;20377;-71
2023/06/23 01:13:20;;;;;;;;;;;20.30;64.70;;;;;;5110746;28;19911;-71
2023/06/23 01:15:49;;;;;;;;;;;20.30;64.70;;;;;;5110704;28;20126;-71
2023/06/23 01:18:38;;;;;;;;;;;20.30;64.70;;;;;;5110647;28;19908;-71
2023/06/23 01:21:05;;;;;;;;;;;20.30;64.70;;;;;;5104460;28;19922;-71
2023/06/23 01:23:45;;;;;;;;;;;20.30;64.70;;;;;;5110483;28;19919;-71
2023/06/23 01:26:10;;;;;;;;;;;20.20;64.70;;;;;;5109113;28;19934;-72
2023/06/23 01:28:39;;;;;;;;;;;20.20;64.70;;;;;;5110414;27;19908;-71
2023/06/23 01:31:07;;;;;;;;;;;20.20;64.70;;;;;;5110271;28;19907;-71
2023/06/23 01:33:37;;;;;;;;;;;20.10;64.70;;;;;;5110366;28;19907;-71
2023/06/23 01:36:05;;;;;;;;;;;20.20;64.70;;;;;;5110306;27;19938;-71
2023/06/23 01:38:36;;;;;;;;;;;20.10;64.70;;;;;;5110281;28;19915;-71
2023/06/23 01:41:04;;;;;;;;;;;20.10;64.70;;;;;;5108674;28;19926;-71
2023/06/23 01:43:30;;;;;;;;;;;20.00;64.70;;;;;;5110130;28;19934;-71
2023/06/23 01:46:04;;;;;;;;;;;20.00;64.70;;;;;;5110179;28;19916;-71
2023/06/23 01:48:32;;;;;;;;;;;20.00;64.70;;;;;;5110143;28;20260;-71
2023/06/23 01:50:58;;;;;;;;;;;20.00;64.80;;;;;;5110089;28;19918;-71
2023/06/23 01:53:25;;;;;;;;;;;20.00;64.90;;;;;;5109947;28;20035;-72
2023/06/23 01:55:51;;;;;;;;;;;20.00;64.80;;;;;;5110074;27;19912;-72
2023/06/23 01:58:17;;;;;;;;;;;20.00;64.80;;;;;;5110008;28;19998;-72
2023/06/23 02:00:43;;;;;;;;;;;20.00;64.80;;;;;;5109783;28;19916;-72
2023/06/23 02:03:09;;;;;;;;;;;20.00;64.80;;;;;;5109630;28;19919;-72
2023/06/23 02:05:36;;;;;;;;;;;20.00;64.80;;;;;;5109827;28;19912;-72
2023/06/23 02:08:02;;;;;;;;;;;20.00;64.70;;;;;;5108689;28;19998;-72
2023/06/23 02:10:28;;;;;;;;;;;20.00;64.70;;;;;;5109731;28;20002;-72
2023/06/23 02:12:54;;;;;;;;;;;20.00;64.80;;;;;;5109815;28;19912;-72
2023/06/23 02:15:21;;;;;;;;;;;19.90;64.80;;;;;;5109823;28;19914;-72
2023/06/23 02:17:49;;;;;;;;;;;19.90;64.80;;;;;;5108891;28;20423;-72
2023/06/23 02:20:16;;;;;;;;;;;19.90;64.90;;;;;;5109564;28;19916;-72
2023/06/23 02:22:49;;;;;;;;;;;19.90;64.90;;;;;;5109540;28;19962;-72
2023/06/23 02:25:15;;;;;;;;;;;19.90;65.40;;;;;;5109493;28;19933;-72
2023/06/23 02:27:41;;;;;;;;;;;19.90;64.90;;;;;;5109456;28;19923;-72
2023/06/23 02:30:07;;;;;;;;;;;19.90;64.90;;;;;;5109835;28;19911;-72
2023/06/23 02:32:33;;;;;;;;;;;19.90;64.90;;;;;;5109320;27;19944;-72
2023/06/23 02:34:58;;;;;;;;;;;19.90;64.90;;;;;;5109687;28;19919;-72
2023/06/23 02:37:26;;;;;;;;;;;19.90;64.90;;;;;;5108175;28;19923;-72
2023/06/23 02:39:54;;;;;;;;;;;19.90;64.80;;;;;;5109229;28;19918;-72
2023/06/23 02:42:21;;;;;;;;;;;19.90;64.90;;;;;;5109132;28;19908;-72
2023/06/23 02:45:06;;;;;;;;;;;19.80;64.90;;;;;;5109181;28;19912;-72
2023/06/23 02:47:35;;;;;;;;;;;19.80;64.90;;;;;;5109185;28;19914;-72
2023/06/23 02:50:02;;;;;;;;;;;19.80;64.90;;;;;;5109116;28;19955;-72
2023/06/23 02:52:30;;;;;;;;;;;19.90;64.90;;;;;;5108935;28;19908;-72
2023/06/23 02:54:56;;;;;;;;;;;19.80;64.90;;;;;;5109118;28;19949;-72
2023/06/23 02:57:22;;;;;;;;;;;19.80;64.80;;;;;;5108677;28;19965;-72
2023/06/23 02:59:50;;;;;;;;;;;19.90;64.90;;;;;;5109015;28;19919;-72
2023/06/23 03:02:16;;;;;;;;;;;19.90;65.00;;;;;;5108605;28;19908;-72
2023/06/23 03:04:42;;;;;;;;;;;19.90;65.00;;;;;;5108813;28;19923;-72
2023/06/23 03:07:10;;;;;;;;;;;19.90;64.90;;;;;;5108724;28;19925;-72
2023/06/23 03:09:36;;;;;;;;;;;19.90;65.00;;;;;;5108808;28;19935;-72
2023/06/23 03:12:02;;;;;;;;;;;19.90;64.90;;;;;;5108624;28;19955;-72
2023/06/23 03:14:27;;;;;;;;;;;19.90;64.90;;;;;;5108610;28;20261;-72
2023/06/23 03:16:59;;;;;;;;;;;19.90;64.90;;;;;;5108707;28;20010;-72
2023/06/23 03:19:25;;;;;;;;;;;19.90;64.90;;;;;;5108452;27;19990;-72
2023/06/23 03:21:54;;;;;;;;;;;19.90;65.00;;;;;;5108522;28;20482;-72
2023/06/23 03:24:20;;;;;;;;;;;19.90;65.00;;;;;;5108479;28;19907;-72
2023/06/23 03:26:47;;;;;;;;;;;19.80;65.00;;;;;;5108566;28;19912;-72
2023/06/23 03:29:13;;;;;;;;;;;19.80;65.00;;;;;;5108487;28;19908;-72
2023/06/23 03:31:41;;;;;;;;;;;19.90;65.00;;;;;;5108355;28;19915;-72
2023/06/23 03:34:07;;;;;;;;;;;19.90;65.00;;;;;;5108378;28;19908;-72
2023/06/23 03:36:36;;;;;;;;;;;19.90;65.00;;;;;;5108644;28;19917;-72
2023/06/23 03:39:11;;;;;;;;;;;19.90;64.90;;;;;;5108202;28;19919;-72
2023/06/23 03:41:38;;;;;;;;;;;19.90;64.90;;;;;;5108124;28;19912;-72
2023/06/23 03:44:09;;;;;;;;;;;19.80;64.90;;;;;;5108445;28;19914;-72
2023/06/23 03:46:43;;;;;;;;;;;19.80;65.00;;;;;;5108288;28;19937;-72
2023/06/23 03:49:10;;;;;;;;;;;19.80;65.00;;;;;;5106900;28;20405;-72
2023/06/23 03:51:38;;;;;;;;;;;19.80;65.00;;;;;;5108030;28;19997;-71
2023/06/23 03:54:05;;;;;;;;;;;19.80;65.10;;;;;;5108208;28;19998;-72
2023/06/23 03:56:33;;;;;;;;;;;19.70;65.00;;;;;;5108189;28;19959;-72
2023/06/23 03:58:59;;;;;;;;;;;19.70;65.00;;;;;;5108085;28;19911;-72
2023/06/23 04:01:26;;;;;;;;;;;19.70;65.00;;;;;;5108028;28;19920;-72
2023/06/23 04:03:52;;;;;;;;;;;19.70;65.10;;;;;;5107885;28;19920;-72
2023/06/23 04:06:19;;;;;;;;;;;19.60;65.00;;;;;;5108013;28;19916;-72
2023/06/23 04:08:45;;;;;;;;;;;19.60;65.00;;;;;;5107936;28;19946;-72
2023/06/23 04:11:11;;;;;;;;;;;19.60;65.00;;;;;;5106585;28;19922;-72
2023/06/23 04:13:37;;;;;;;;;;;19.60;65.10;;;;;;5107997;28;20400;-72
2023/06/23 04:16:04;;;;;;;;;;;19.60;65.20;;;;;;5108029;28;19908;-72
2023/06/23 04:18:32;;;;;;;;;;;19.60;65.10;;;;;;5107957;28;19918;-72
2023/06/23 04:20:57;;;;;;;;;;;19.60;65.20;;;;;;5107740;28;19922;-72
2023/06/23 04:23:26;;;;;;;;;;;19.60;65.20;;;;;;5108098;28;19907;-72
2023/06/23 04:25:51;;;;;;;;;;;19.60;65.20;;;;;;5106572;28;19908;-72
2023/06/23 04:28:19;;;;;;;;;;;19.60;65.20;;;;;;5107873;28;20280;-72
2023/06/23 04:30:44;;;;;;;;;;;19.60;65.20;;;;;;5107770;28;19908;-72
2023/06/23 04:33:10;;;;;;;;;;;19.60;65.30;;;;;;5107810;28;19939;-72
2023/06/23 04:35:36;;;;;;;;;;;19.60;65.40;;;;;;5107602;28;19916;-72
2023/06/23 04:38:12;;;;;;;;;;;19.50;65.40;;;;;;5107720;28;20149;-72
2023/06/23 04:40:44;;;;;;;;;;;19.60;65.40;;;;;;5108335;28;20014;-72
2023/06/23 04:43:14;;;;;;;;;;;19.60;65.40;;;;;;5111517;28;20292;-72
2023/06/23 04:45:59;;;;;;;;;;;19.60;65.40;;;;;;5111724;28;19915;-72
2023/06/23 04:48:30;;;;;;;;;;;19.60;65.40;;;;;;5110755;28;19908;-72
2023/06/23 04:50:57;;;;;;;;;;;19.60;65.40;;;;;;5111291;28;20381;-72
2023/06/23 04:53:31;;;;;;;;;;;19.60;65.20;;;;;;5111245;28;19908;-72
2023/06/23 04:55:58;;;;;;;;;;;19.60;65.20;;;;;;5109794;28;19908;-72
2023/06/23 04:58:25;;;;;;;;;;;19.70;65.20;;;;;;5110914;28;20284;-72
2023/06/23 05:00:51;;;;;;;;;;;19.60;65.20;;;;;;5110915;28;19918;-72
2023/06/23 05:03:17;;;;;;;;;;;19.70;65.20;;;;;;5110877;28;20010;-72
2023/06/23 05:05:44;;;;;;;;;;;19.70;65.20;;;;;;5111093;28;19911;-72
2023/06/23 05:08:10;;;;;;;;;;;19.60;65.20;;;;;;5110909;28;19917;-72
2023/06/23 05:10:37;;;;;;;;;;;19.60;65.20;;;;;;5110858;28;20455;-72
2023/06/23 05:13:04;;;;;;;;;;;19.60;65.20;;;;;;5110745;28;19969;-72
2023/06/23 05:15:29;;;;;;;;;;;19.60;65.30;;;;;;5110798;28;19915;-72
2023/06/23 05:17:56;;;;;;;;;;;19.50;65.30;;;;;;5110579;28;19911;-72
2023/06/23 05:20:23;;;;;;;;;;;19.50;65.30;;;;;;5110578;28;20383;-72
2023/06/23 05:22:50;;;;;;;;;;;19.50;65.30;;;;;;5110671;28;19930;-72
2023/06/23 05:25:17;;;;;;;;;;;19.50;65.30;;;;;;5110590;28;19912;-72
2023/06/23 05:27:44;;;;;;;;;;;19.40;65.40;;;;;;5110484;28;19935;-72
2023/06/23 05:30:13;;;;;;;;;;;19.50;65.50;;;;;;5110298;28;19996;-72
2023/06/23 05:32:40;;;;;;;;;;;19.50;65.40;;;;;;5110464;28;19911;-72
2023/06/23 05:35:07;;;;;;;;;;;19.40;65.30;;;;;;5110341;28;19957;-72
2023/06/23 05:37:34;;;;;;;;;;;19.40;65.30;;;;;;5109065;28;20279;-72
2023/06/23 05:40:03;;;;;;;;;;;19.40;65.40;;;;;;5110239;27;20005;-72
2023/06/23 05:42:32;;;;;;;;;;;19.30;65.40;;;;;;5110183;28;19912;-72
2023/06/23 05:44:59;;;;;;;;;;;19.40;65.50;;;;;;5110208;28;19919;-72
2023/06/23 05:47:26;;;;;;;;;;;19.40;65.50;;;;;;5110301;28;20267;-72
2023/06/23 05:49:55;;;;;;;;;;;19.40;65.50;;;;;;5110124;28;19908;-72
2023/06/23 05:52:22;;;;;;;;;;;19.40;65.50;;;;;;5108819;28;19919;-72
2023/06/23 05:54:49;;;;;;;;;;;19.50;65.60;;;;;;5109850;28;19915;-72
2023/06/23 05:57:23;;;;;;;;;;;19.50;65.50;;;;;;5109980;28;20298;-72
2023/06/23 05:59:54;;;;;;;;;;;19.40;65.50;;;;;;5109470;28;20347;-72
2023/06/23 06:02:21;;;;;;;;;;;19.40;65.60;;;;;;5108312;28;19952;-72
2023/06/23 06:04:48;;;;;;;;;;;19.40;66.10;;;;;;5109846;28;19908;-72
2023/06/23 06:07:14;;;;;;;;;;;19.40;65.60;;;;;;5109716;28;20356;-72
2023/06/23 06:09:41;;;;;;;;;;;19.30;65.60;;;;;;5109694;27;19919;-72
2023/06/23 06:12:07;;;;;;;;;;;19.30;65.60;;;;;;5109536;28;19969;-72
2023/06/23 06:14:34;;;;;;;;;;;19.30;65.60;;;;;;5108402;28;20014;-73
2023/06/23 06:17:00;;;;;;;;;;;19.20;65.60;;;;;;5109597;28;19999;-72
2023/06/23 06:19:27;;;;;;;;;;;19.10;65.60;;;;;;5109582;28;20347;-72
2023/06/23 06:21:54;;;;;;;;;;;18.90;65.60;;;;;;5109231;28;19916;-72
2023/06/23 06:24:20;;;;;;;;;;;18.90;65.70;;;;;;5109375;28;19960;-72
2023/06/23 06:26:48;;;;;;;;;;;18.90;65.70;;;;;;5109078;28;19916;-72
2023/06/23 06:29:17;;;;;;;;;;;18.90;65.70;;;;;;5109040;28;19919;-72
2023/06/23 06:31:45;;;;;;;;;;;18.90;65.60;;;;;;5109058;28;20037;-72
2023/06/23 06:34:13;;;;;;;;;;;19.00;65.70;;;;;;5109079;28;19915;-72
2023/06/23 06:36:41;;;;;;;;;;;19.00;65.70;;;;;;5109069;28;19998;-72
2023/06/23 06:39:07;;;;;;;;;;;19.10;65.70;;;;;;5108879;28;20271;-72
2023/06/23 06:41:34;;;;;;;;;;;19.30;65.80;;;;;;5107533;28;20399;-72
2023/06/23 06:44:02;;;;;;;;;;;19.40;65.70;;;;;;5108929;27;19961;-72
2023/06/23 06:46:28;;;;;;;;;;;19.40;65.50;;;;;;5108822;28;19915;-72
2023/06/23 06:48:55;;;;;;;;;;;19.50;65.50;;;;;;5108828;28;19922;-72
2023/06/23 06:51:21;;;;;;;;;;;19.60;65.50;;;;;;5108763;28;20465;-72
2023/06/23 06:53:46;;;;;;;;;;;19.60;65.50;;;;;;5108782;28;19958;-72
2023/06/23 06:56:13;;;;;;;;;;;19.70;65.50;;;;;;5108482;28;19917;-71
2023/06/23 06:58:39;;;;;;;;;;;19.70;65.50;;;;;;5108533;28;19947;-72
2023/06/23 07:01:05;;;;;;;;;;;19.80;65.60;;;;;;5108119;28;19911;-72
2023/06/23 07:03:31;;;;;;;;;;;19.80;65.70;;;;;;5107823;28;19981;-72
2023/06/23 07:05:56;;;;;;;;;;;19.90;65.90;;;;;;5107158;28;19930;-72
2023/06/23 07:08:22;;;;;;;;;;;20.00;65.80;;;;;;5107157;28;19912;-72
2023/06/23 07:10:47;;;;;;;;;;;20.10;65.80;;;;;;5108410;28;19915;-71
2023/06/23 07:13:13;;;;;;;;;;;20.20;65.80;;;;;;5107608;28;20205;-72
2023/06/23 07:15:38;;;;;;;;;;;20.40;65.80;;;;;;5108258;28;19912;-71
2023/06/23 07:18:04;;;;;;;;;;;20.50;65.60;;;;;;5108404;28;19938;-72
2023/06/23 07:20:30;;;;;;;;;;;20.60;65.70;;;;;;5108315;28;20353;-72
2023/06/23 07:22:56;;;;;;;;;;;20.60;65.50;;;;;;5108217;28;19918;-72
2023/06/23 07:25:21;;;;;;;;;;;20.70;65.50;;;;;;5108362;28;19908;-72
2023/06/23 07:27:48;;;;;;;;;;;20.70;65.60;;;;;;5107984;28;19915;-72
2023/06/23 07:30:14;;;;;;;;;;;20.70;65.50;;;;;;5107962;28;19908;-72
2023/06/23 07:32:40;;;;;;;;;;;20.70;65.50;;;;;;5107898;28;19958;-72
2023/06/23 07:35:06;;;;;;;;;;;20.70;65.60;;;;;;5108064;28;19972;-72
2023/06/23 07:37:31;;;;;;;;;;;20.70;65.60;;;;;;5107968;28;19919;-72
2023/06/23 07:39:57;;;;;;;;;;;20.80;65.70;;;;;;5107274;28;19919;-72
2023/06/23 07:42:23;;;;;;;;;;;20.90;65.60;;;;;;5106216;28;19938;-72
2023/06/23 07:44:49;;;;;;;;;;;21.00;65.60;;;;;;5107457;28;19918;-72
2023/06/23 07:47:15;;;;;;;;;;;21.10;65.60;;;;;;5107934;28;19962;-72
2023/06/23 07:49:40;;;;;;;;;;;21.20;65.50;;;;;;5107971;28;19966;-72
2023/06/23 07:52:06;;;;;;;;;;;21.30;65.40;;;;;;5107227;28;19943;-72
2023/06/23 07:54:32;;;;;;;;;;;21.30;65.30;;;;;;5107544;28;19926;-72
2023/06/23 07:56:58;;;;;;;;;;;21.30;65.30;;;;;;5107445;28;19984;-71
2023/06/23 07:59:26;;;;;;;;;;;21.30;65.40;;;;;;5107221;28;19908;-72
2023/06/23 08:01:52;;;;;;;;;;;21.20;65.40;;;;;;5107107;28;20393;-71
2023/06/23 08:04:18;;;;;;;;;;;21.10;65.40;;;;;;5107100;28;19924;-71
2023/06/23 08:06:43;;;;;;;;;;;21.00;65.50;;;;;;5105329;28;20301;-71
2023/06/23 08:09:09;;;;;;;;;;;21.00;65.60;;;;;;5097707;28;19924;-71
2023/06/23 08:11:35;;;;;;;;;;;21.00;65.70;;;;;;5086896;28;20244;-71
2023/06/23 08:14:00;;;;;;;;;;;21.00;65.70;;;;;;5090720;28;19926;-71
2023/06/23 08:16:26;;;;;;;;;;;21.00;65.60;;;;;;5099216;28;19915;-71
2023/06/23 08:18:52;;;;;;;;;;;21.00;65.60;;;;;;5102531;28;20256;-71
2023/06/23 08:21:18;;;;;;;;;;;21.00;65.60;;;;;;5102421;28;19964;-71
2023/06/23 08:23:47;;;;;;;;;;;21.10;65.60;;;;;;5100669;28;20252;-71
2023/06/23 08:26:13;;;;;;;;;;;21.20;65.60;;;;;;5104619;28;19958;-71
2023/06/23 08:28:39;;;;;;;;;;;21.30;65.60;;;;;;5098763;28;20008;-71
2023/06/23 08:31:05;;;;;;;;;;;21.40;65.70;;;;;;5093979;28;19924;-69
2023/06/23 08:33:34;;;;;;;;;;;21.50;65.70;;;;;;5098358;28;20459;-71
2023/06/23 08:36:00;;;;;;;;;;;21.60;65.70;;;;;;5099471;28;19915;-70
2023/06/23 08:38:26;;;;;;;;;;;21.80;65.70;;;;;;5102581;28;20384;-70
2023/06/23 08:40:52;;;;;;;;;;;22.00;65.60;;;;;;5100363;28;19940;-70
2023/06/23 08:43:25;;;;;;;;;;;22.10;65.50;;;;;;5103283;28;20344;-71
2023/06/23 08:45:55;;;;;;;;;;;22.20;65.40;;;;;;5100440;28;19929;-70
2023/06/23 08:48:23;;;;;;;;;;;22.20;65.10;;;;;;5104032;28;19924;-70
2023/06/23 08:50:49;;;;;;;;;;;22.10;65.20;;;;;;5102399;28;19907;-70
2023/06/23 08:53:14;;;;;;;;;;;22.00;65.50;;;;;;5099453;28;19923;-71
2023/06/23 08:55:40;;;;;;;;;;;22.10;65.60;;;;;;5103301;28;19963;-77
2023/06/23 08:58:06;;;;;;;;;;;22.20;65.70;;;;;;5101759;28;19998;-77
2023/06/23 09:00:31;;;;;;;;;;;22.20;65.60;;;;;;5100206;28;20344;-76
2023/06/23 09:02:57;;;;;;;;;;;22.30;65.60;;;;;;5103854;28;20359;-75
2023/06/23 09:05:23;;;;;;;;;;;22.30;65.60;;;;;;5100717;28;19912;-76
2023/06/23 09:07:49;;;;;;;;;;;22.30;65.60;;;;;;5096356;28;19908;-76
2023/06/23 09:10:15;;;;;;;;;;;22.40;65.60;;;;;;5102181;27;19934;-76
2023/06/23 09:12:42;;;;;;;;;;;22.40;65.60;;;;;;5099327;28;19966;-77
2023/06/23 09:15:10;;;;;;;;;;;22.30;65.60;;;;;;5091133;28;20004;-76
2023/06/23 09:17:36;;;;;;;;;;;22.30;65.70;;;;;;5091232;28;19908;-76
2023/06/23 09:20:03;;;;;;;;;;;22.40;65.70;;;;;;5091309;28;20354;-77
2023/06/23 09:22:30;;;;;;;;;;;22.40;65.80;;;;;;5099593;28;19923;-77
2023/06/23 09:24:56;;;;;;;;;;;22.40;65.80;;;;;;5101641;28;19979;-77
2023/06/23 09:27:38;;;;;;;;;;;22.30;65.70;;;;;;5102796;28;20380;-76
2023/06/23 09:30:04;;;;;;;;;;;22.30;65.80;;;;;;5099610;28;19916;-77
2023/06/23 09:32:30;;;;;;;;;;;22.40;65.80;;;;;;5104356;28;19912;-77
2023/06/23 09:34:55;;;;;;;;;;;22.50;65.90;;;;;;5103726;28;20003;-76
2023/06/23 09:37:21;;;;;;;;;;;22.60;65.90;;;;;;5099217;28;19916;-77
2023/06/23 09:39:48;;;;;;;;;;;22.80;66.00;;;;;;5101610;28;19912;-77
2023/06/23 09:42:14;;;;;;;;;;;23.10;66.20;;;;;;5100429;28;19920;-76
2023/06/23 09:44:48;;;;;;;;;;;23.30;66.00;;;;;;5099713;28;20427;-73
2023/06/23 09:47:14;;;;;;;;;;;23.40;65.90;;;;;;5095868;28;19908;-75
2023/06/23 09:49:41;;;;;;;;;;;23.60;65.80;;;;;;5095956;28;20249;-76
2023/06/23 09:52:07;;;;;;;;;;;23.70;65.70;;;;;;5101352;28;19962;-75
2023/06/23 09:54:33;;;;;;;;;;;23.70;65.70;;;;;;5096356;28;19919;-77
2023/06/23 09:57:07;;;;;;;;;;;23.70;65.70;;;;;;5100964;28;19908;-75
2023/06/23 09:59:32;;;;;;;;;;;23.70;65.80;;;;;;5100883;28;19998;-77
2023/06/23 10:01:58;;;;;;;;;;;23.80;65.70;;;;;;5099292;28;20011;-77
2023/06/23 10:04:27;;;;;;;;;;;24.00;65.70;;;;;;5101877;28;19924;-76
2023/06/23 10:06:53;;;;;;;;;;;24.10;65.60;;;;;;5098610;28;19934;-75
2023/06/23 10:09:22;;;;;;;;;;;24.10;65.70;;;;;;5102983;28;20401;-76
2023/06/23 10:11:47;;;;;;;;;;;24.10;65.40;;;;;;5098614;28;19947;-76
2023/06/23 10:14:15;;;;;;;;;;;24.10;65.60;;;;;;5096664;28;20323;-76
2023/06/23 10:16:43;;;;;;;;;;;24.30;65.80;;;;;;5100485;28;19976;-76
2023/06/23 10:19:09;;;;;;;;;;;24.50;65.80;;;;;;5100303;28;20237;-77
2023/06/23 10:21:35;;;;;;;;;;;24.90;66.10;;;;;;5100314;28;19938;-77
2023/06/23 10:24:19;;;;;;;;;;;25.40;66.10;;;;;;5099503;28;20380;-76
2023/06/23 10:26:45;;;;;;;;;;;26.10;66.40;;;;;;5091926;28;19908;-77
2023/06/23 10:29:14;;;;;;;;;;;26.80;65.90;;;;;;5103264;28;19965;-77
2023/06/23 10:31:41;;;;;;;;;;;27.00;65.40;;;;;;5099230;28;20486;-77
2023/06/23 10:34:09;;;;;;;;;;;27.20;65.40;;;;;;5101122;28;20126;-77
2023/06/23 10:36:38;;;;;;;;;;;27.30;65.60;;;;;;5095789;28;19915;-76
2023/06/23 10:39:04;;;;;;;;;;;27.80;65.90;;;;;;5094995;28;19908;-77
2023/06/23 10:41:32;;;;;;;;;;;27.90;65.40;;;;;;5100756;28;19919;-76
2023/06/23 10:43:59;;;;;;;;;;;27.80;65.20;;;;;;5094787;28;19932;-72
2023/06/23 10:46:25;;;;;;;;;;;27.40;64.90;;;;;;5099793;28;19911;-72
2023/06/23 10:48:51;;;;;;;;;;;27.10;65.20;;;;;;5099397;28;19919;-72
2023/06/23 10:51:17;;;;;;;;;;;27.00;65.40;;;;;;5096653;28;19932;-71
2023/06/23 10:54:02;;;;;;;;;;;26.90;65.50;;;;;;5096928;28;19942;-72
2023/06/23 10:56:32;;;;;;;;;;;27.00;65.70;;;;;;5098156;28;19923;-73
2023/06/23 10:58:58;;;;;;;;;;;27.00;65.70;;;;;;5097723;28;19957;-72
2023/06/23 11:01:26;;;;;;;;;;;26.90;65.50;;;;;;5098658;28;19912;-72
2023/06/23 11:03:53;;;;;;;;;;;26.70;65.40;;;;;;5098966;28;19924;-72
2023/06/23 11:06:26;;;;;;;;;;;26.50;65.40;;;;;;5098186;28;19921;-71
2023/06/23 11:08:52;;;;;;;;;;;26.40;65.40;;;;;;5095004;28;19983;-72
2023/06/23 11:11:29;;;;;;;;;;;26.40;65.70;;;;;;5096605;28;19978;-71
2023/06/23 11:13:56;;;;;;;;;;;26.40;65.50;;;;;;5099101;28;19954;-72
2023/06/23 11:16:29;;;;;;;;;;;26.30;65.50;;;;;;5096654;28;20215;-71
2023/06/23 11:18:57;;;;;;;;;;;26.30;65.60;;;;;;5097521;28;19938;-71
2023/06/23 11:21:30;;;;;;;;;;;26.10;65.70;;;;;;5102092;28;20503;-71
2023/06/23 11:24:11;;;;;;;;;;;26.10;65.70;;;;;;5107706;28;19961;-70
2023/06/23 11:26:41;;;;;;;;;;;26.00;65.80;;;;;;5107753;28;20347;-71
2023/06/23 11:29:14;;;;;;;;;;;25.90;65.60;;;;;;5107666;28;19918;-71
2023/06/23 11:31:58;;;;;;;;;;;25.80;65.70;;;;;;5107639;28;19935;-71
2023/06/23 11:34:25;;;;;;;;;;;25.90;65.80;;;;;;5107478;28;19908;-72
2023/06/23 11:36:51;;;;;;;;;;;25.80;65.80;;;;;;5106709;28;19919;-72
2023/06/23 11:39:16;;;;;;;;;;;25.90;65.90;;;;;;5106677;28;19983;-71
2023/06/23 11:41:43;;;;;;;;;;;25.80;65.70;;;;;;5107317;28;19923;-71
2023/06/23 11:44:10;;;;;;;;;;;25.70;65.70;;;;;;5107562;28;19907;-71
2023/06/23 11:46:35;;;;;;;;;;;25.60;65.70;;;;;;5107529;28;19913;-71
2023/06/23 11:49:08;;;;;;;;;;;25.60;65.70;;;;;;5106738;28;20309;-71
2023/06/23 11:51:35;;;;;;;;;;;25.40;65.70;;;;;;5106785;28;20332;-70
2023/06/23 11:54:01;;;;;;;;;;;25.30;65.70;;;;;;5107464;28;19923;-71
2023/06/23 11:56:26;;;;;;;;;;;25.20;66.20;;;;;;5107385;28;19916;-72
2023/06/23 11:58:52;;;;;;;;;;;25.10;65.70;;;;;;5107141;28;19918;-71
2023/06/23 12:01:19;;;;;;;;;;;24.90;65.70;;;;;;5107712;28;19912;-76
2023/06/23 12:03:45;;;;;;;;;;;24.80;65.80;;;;;;5042017;28;1863384;-75
2023/06/23 12:06:14;;;;;;;;;;;24.80;65.80;;;;;;5108859;28;19919;-76
2023/06/23 12:08:39;;;;;;;;;;;24.70;65.90;;;;;;5109043;28;20364;-76
2023/06/23 12:11:05;;;;;;;;;;;24.70;66.00;;;;;;5108515;28;19918;-75
2023/06/23 12:13:31;;;;;;;;;;;24.70;66.00;;;;;;5109030;28;19923;-76
2023/06/23 12:15:56;;;;;;;;;;;24.80;66.10;;;;;;5108864;28;20287;-76
2023/06/23 12:18:22;;;;;;;;;;;24.80;65.90;;;;;;5107597;28;20368;-77
2023/06/23 12:20:47;;;;;;;;;;;24.80;65.80;;;;;;5107088;28;19916;-76
2023/06/23 12:23:14;;;;;;;;;;;24.80;65.90;;;;;;5107595;28;20017;-76
2023/06/23 12:25:43;;;;;;;;;;;24.90;66.00;;;;;;5108224;28;19912;-77
2023/06/23 12:28:13;;;;;;;;;;;24.90;65.80;;;;;;5108263;28;19998;-76
2023/06/23 12:30:40;;;;;;;;;;;24.90;65.80;;;;;;5108099;28;19923;-75
2023/06/23 12:33:28;;;;;;;;;;;24.90;65.80;;;;;;5108628;28;19994;-75
2023/06/23 12:35:58;;;;;;;;;;;25.10;66.10;;;;;;5108695;28;19960;-76
2023/06/23 12:38:25;;;;;;;;;;;25.40;66.20;;;;;;5108296;28;20021;-75
2023/06/23 12:40:51;;;;;;;;;;;25.70;66.20;;;;;;5108558;28;19934;-76
2023/06/23 12:43:18;;;;;;;;;;;26.20;66.40;;;;;;5108446;28;19908;-76
2023/06/23 12:45:46;;;;;;;;;;;26.60;66.20;;;;;;5109131;28;19912;-76
2023/06/23 12:48:12;;;;;;;;;;;26.70;65.90;;;;;;5109462;28;19908;-75
2023/06/23 12:50:38;;;;;;;;;;;26.50;65.70;;;;;;5108045;28;20016;-76
2023/06/23 12:53:04;;;;;;;;;;;26.30;65.70;;;;;;5107199;28;19916;-75
2023/06/23 12:55:29;;;;;;;;;;;26.10;65.70;;;;;;5108558;28;19918;-76
2023/06/23 12:57:55;;;;;;;;;;;25.80;65.60;;;;;;5108579;28;19911;-76
2023/06/23 13:00:21;;;;;;;;;;;25.60;65.80;;;;;;5108173;28;19964;-75
2023/06/23 13:02:49;;;;;;;;;;;25.50;66.00;;;;;;5111496;27;19923;-75
2023/06/23 13:05:14;;;;;;;;;;;25.50;66.20;;;;;;5112255;28;20228;-70
2023/06/23 13:07:40;;;;;;;;;;;25.60;66.20;;;;;;5111465;28;19931;-70
2023/06/23 13:10:09;;;;;;;;;;;25.80;66.30;;;;;;5111250;28;20280;-71
2023/06/23 13:12:35;;;;;;;;;;;26.00;66.30;;;;;;5111490;28;19923;-71
2023/06/23 13:15:06;;;;;;;;;;;26.10;66.20;;;;;;5111325;28;19916;-70
2023/06/23 13:17:32;;;;;;;;;;;26.10;66.00;;;;;;5093479;28;20286;-71
2023/06/23 13:19:58;;;;;;;;;;;25.90;66.00;;;;;;5111176;28;19908;-71
2023/06/23 13:22:23;;;;;;;;;;;25.60;65.80;;;;;;5111667;28;19930;-71
2023/06/23 13:24:49;;;;;;;;;;;25.40;66.20;;;;;;5111548;27;19924;-73
2023/06/23 13:27:14;;;;;;;;;;;25.30;66.30;;;;;;5111200;28;19920;-70
2023/06/23 13:29:41;;;;;;;;;;;25.20;66.30;;;;;;5111639;28;19922;-71
2023/06/23 13:32:07;;;;;;;;;;;25.20;66.40;;;;;;5110983;28;19910;-71
2023/06/23 13:34:33;;;;;;;;;;;25.40;66.50;;;;;;5111064;28;20214;-71
2023/06/23 13:36:58;;;;;;;;;;;25.50;66.40;;;;;;5109233;28;19979;-70
2023/06/23 13:39:24;;;;;;;;;;;25.60;66.40;;;;;;5101326;28;19927;-71
2023/06/23 13:41:50;;;;;;;;;;;25.80;66.40;;;;;;5102500;28;19916;-70
2023/06/23 13:44:17;;;;;;;;;;;25.90;66.20;;;;;;5102162;27;19908;-71
2023/06/23 13:46:43;;;;;;;;;;;25.90;66.70;;;;;;5110520;28;19916;-71
2023/06/23 13:49:09;;;;;;;;;;;26.00;66.30;;;;;;5110437;28;19950;-70
2023/06/23 13:51:34;;;;;;;;;;;26.00;66.10;;;;;;5109365;28;20037;-71
2023/06/23 13:54:00;;;;;;;;;;;26.10;66.20;;;;;;5110663;28;20310;-71
2023/06/23 13:56:26;;;;;;;;;;;26.10;66.00;;;;;;5110268;28;19919;-72
2023/06/23 13:58:51;;;;;;;;;;;26.00;65.90;;;;;;5109291;28;19923;-72
2023/06/23 14:01:17;;;;;;;;;;;25.90;65.90;;;;;;5106849;28;20032;-71
2023/06/23 14:03:42;;;;;;;;;;;26.00;66.10;;;;;;5108626;28;19935;-72
2023/06/23 14:06:08;;;;;;;;;;;25.90;65.90;;;;;;5110311;28;19908;-72
2023/06/23 14:08:35;;;;;;;;;;;25.70;65.80;;;;;;5110212;28;19939;-71
2023/06/23 14:11:01;;;;;;;;;;;25.50;65.80;;;;;;5110365;27;19911;-71
2023/06/23 14:13:26;;;;;;;;;;;25.30;65.90;;;;;;5108971;28;20530;-71
2023/06/23 14:15:52;;;;;;;;;;;25.10;65.90;;;;;;5110030;28;19912;-72
2023/06/23 14:18:18;;;;;;;;;;;24.90;66.00;;;;;;5109561;28;19915;-72